createdAt,value
2023-04-02T00:01:02.005Z,93733.53
2023-04-02T00:03:43.914Z,93740.97
2023-04-02T00:06:25.669Z,93753.81
2023-04-02T00:08:52.310Z,93787.47
2023-04-02T00:11:31.175Z,93761.63
2023-04-02T00:14:01.564Z,93763.13
2023-04-02T00:16:28.496Z,93773.22
2023-04-02T00:19:01.470Z,93779.72
2023-04-02T00:21:32.099Z,93802.19
2023-04-02T00:24:03.085Z,93821.59
2023-04-02T00:26:29.575Z,93836.50
2023-04-02T00:28:56.156Z,93872.44
2023-04-02T00:31:25.513Z,93785.78
2023-04-02T00:33:52.925Z,93827.72
2023-04-02T00:36:25.702Z,93844.28
2023-04-02T00:38:53.850Z,93851.28
2023-04-02T00:41:25.224Z,93834.31
2023-04-02T00:43:52.741Z,93796.81
2023-04-02T00:46:28.662Z,93778.69
2023-04-02T00:49:02.773Z,93790.13
2023-04-02T00:51:35.546Z,93783.47
2023-04-02T00:54:05.440Z,93766.03
2023-04-02T00:56:53.667Z,93820.31
2023-04-02T00:59:35.962Z,93812.25
2023-04-02T01:02:14.450Z,93253.22
2023-04-02T01:04:41.491Z,93249.41
2023-04-02T01:07:11.177Z,93222.44
2023-04-02T01:10:12.708Z,93226.91
2023-04-02T01:12:39.165Z,93227.19
2023-04-02T01:15:54.948Z,93220.19
2023-04-02T01:18:49.051Z,93209.47
2023-04-02T01:21:18.632Z,93220.13
2023-04-02T01:23:54.441Z,93237.13
2023-04-02T01:26:47.989Z,93209.63
2023-04-02T01:29:18.919Z,93199.63
2023-04-02T01:31:47.296Z,93245.81
2023-04-02T01:34:17.458Z,93248.38
2023-04-02T01:37:02.781Z,93280.03
2023-04-02T01:39:44.384Z,93281.16
2023-04-02T01:42:39.243Z,93248.72
2023-04-02T01:45:11.204Z,93341.78
2023-04-02T01:47:38.826Z,93285.69
2023-04-02T01:50:20.221Z,93300.63
2023-04-02T01:52:49.539Z,93372.03
2023-04-02T01:55:24.814Z,93407.84
2023-04-02T01:57:54.227Z,93342.88
2023-04-02T02:00:21.026Z,93391.66
2023-04-02T02:02:49.874Z,93432.63
2023-04-02T02:05:20.436Z,93472.78
2023-04-02T02:07:47.285Z,93453.16
2023-04-02T02:10:38.359Z,93279.16
2023-04-02T02:13:04.955Z,93294.84
2023-04-02T02:15:33.680Z,93328.84
2023-04-02T02:18:06.024Z,93388.84
2023-04-02T02:20:34.481Z,93570.63
2023-04-02T02:23:01.922Z,93581.38
2023-04-02T02:25:34.125Z,93581.78
2023-04-02T02:28:09.955Z,93591.56
2023-04-02T02:30:42.127Z,93603.13
2023-04-02T02:33:14.102Z,93623.59
2023-04-02T02:35:54.159Z,93644.03
2023-04-02T02:38:26.994Z,93722.66
2023-04-02T02:40:58.310Z,93773.22
2023-04-02T02:43:26.400Z,93751.00
2023-04-02T02:45:55.612Z,93770.19
2023-04-02T02:48:34.091Z,93774.38
2023-04-02T02:51:04.807Z,93771.78
2023-04-02T02:53:31.451Z,93845.53
2023-04-02T02:56:01.366Z,93849.09
2023-04-02T02:58:31.994Z,93847.59
2023-04-02T03:00:59.207Z,93904.78
2023-04-02T03:03:31.921Z,93935.31
2023-04-02T03:06:03.564Z,94005.63
2023-04-02T03:08:44.031Z,94031.22
2023-04-02T03:11:16.946Z,94149.53
2023-04-02T03:13:48.901Z,94191.94
2023-04-02T03:16:33.722Z,94226.03
2023-04-02T03:19:49.968Z,94242.72
2023-04-02T03:22:21.753Z,94249.00
2023-04-02T03:25:03.909Z,94270.41
2023-04-02T03:27:36.533Z,94324.72
2023-04-02T03:30:25.372Z,94307.16
2023-04-02T03:33:00.824Z,94306.63
2023-04-02T03:35:32.451Z,94434.72
2023-04-02T03:38:13.198Z,94397.53
2023-04-02T03:40:50.981Z,94419.00
2023-04-02T03:43:24.278Z,94440.59
2023-04-02T03:46:00.215Z,94439.06
2023-04-02T03:48:34.578Z,94463.72
2023-04-02T03:51:17.993Z,94547.78
2023-04-02T03:53:45.457Z,94555.44
2023-04-02T03:56:28.072Z,94541.56
2023-04-02T03:59:19.680Z,94598.66
2023-04-02T04:01:58.349Z,94660.59
2023-04-02T04:04:29.008Z,94637.75
2023-04-02T04:06:57.150Z,94689.13
2023-04-02T04:09:26.578Z,94772.63
2023-04-02T04:12:02.120Z,94752.78
2023-04-02T04:14:32.566Z,94822.28
2023-04-02T04:17:30.442Z,94835.53
2023-04-02T04:20:07.998Z,94834.75
2023-04-02T04:22:34.756Z,94873.03
2023-04-02T04:25:07.269Z,94907.47
2023-04-02T04:27:53.636Z,95039.38
2023-04-02T04:30:37.446Z,95099.75
2023-04-02T04:33:14.371Z,95130.69
2023-04-02T04:35:48.675Z,95140.72
2023-04-02T04:38:35.278Z,95235.34
2023-04-02T04:41:13.118Z,95219.75
2023-04-02T04:43:47.864Z,95291.63
2023-04-02T04:46:28.397Z,95344.41
2023-04-02T04:49:11.721Z,95290.44
2023-04-02T04:51:53.236Z,95333.16
2023-04-02T04:54:20.257Z,95400.66
2023-04-02T04:57:01.394Z,95383.88
2023-04-02T04:59:39.976Z,95426.03
2023-04-02T05:02:10.647Z,95477.47
2023-04-02T05:04:43.863Z,95545.66
2023-04-02T05:07:25.562Z,95576.31
2023-04-02T05:10:07.796Z,95642.41
2023-04-02T05:13:02.786Z,95674.28
2023-04-02T05:15:35.385Z,95684.03
2023-04-02T05:18:11.313Z,95681.75
2023-04-02T05:20:52.598Z,95737.47
2023-04-02T05:23:26.733Z,95682.44
2023-04-02T05:26:13.026Z,95739.94
2023-04-02T05:28:47.132Z,95746.56
2023-04-02T05:31:23.890Z,95811.53
2023-04-02T05:33:50.432Z,95825.69
2023-04-02T05:36:24.492Z,95838.72
2023-04-02T05:38:52.341Z,95846.16
2023-04-02T05:41:36.555Z,95871.91
2023-04-02T05:44:14.075Z,95914.28
2023-04-02T05:47:11.104Z,95933.13
2023-04-02T05:50:09.283Z,95954.81
2023-04-02T05:52:49.776Z,95949.47
2023-04-02T05:55:27.145Z,95992.16
2023-04-02T05:58:25.605Z,95971.22
2023-04-02T06:00:57.086Z,95994.34
2023-04-02T06:03:43.392Z,96031.69
2023-04-02T06:06:28.969Z,96036.94
2023-04-02T06:09:09.870Z,96080.25
2023-04-02T06:11:45.007Z,96092.03
2023-04-02T06:14:14.184Z,96134.63
2023-04-02T06:16:41.358Z,96141.06
2023-04-02T06:19:15.913Z,96211.06
2023-04-02T06:21:47.548Z,96165.28
2023-04-02T06:24:18.857Z,96214.28
2023-04-02T06:26:54.957Z,96277.00
2023-04-02T06:29:36.944Z,96318.06
2023-04-02T06:32:06.246Z,96367.06
2023-04-02T06:34:33.555Z,96368.78
2023-04-02T06:37:04.613Z,96346.13
2023-04-02T06:39:31.326Z,96468.78
2023-04-02T06:42:13.437Z,96518.69
2023-04-02T06:44:40.695Z,96496.00
2023-04-02T06:47:18.322Z,96559.25
2023-04-02T06:49:53.742Z,96552.66
2023-04-02T06:52:28.340Z,96639.78
2023-04-02T06:54:54.909Z,96680.06
2023-04-02T06:57:21.491Z,96711.53
2023-04-02T06:59:48.074Z,96755.25
2023-04-02T07:02:25.221Z,96714.53
2023-04-02T07:04:52.429Z,96787.47
2023-04-02T07:07:18.903Z,96799.50
2023-04-02T07:09:45.414Z,96816.53
2023-04-02T07:12:15.031Z,96881.84
2023-04-02T07:14:41.525Z,96978.69
2023-04-02T07:17:16.027Z,96949.53
2023-04-02T07:19:42.486Z,97047.94
2023-04-02T07:22:08.975Z,97012.25
2023-04-02T07:24:35.420Z,97099.34
2023-04-02T07:27:01.992Z,97138.31
2023-04-02T07:29:28.653Z,97192.53
2023-04-02T07:31:55.169Z,97180.94
2023-04-02T07:34:21.754Z,97202.97
2023-04-02T07:36:48.249Z,97238.09
2023-04-02T07:39:14.919Z,97206.47
2023-04-02T07:41:52.769Z,97276.09
2023-04-02T07:44:19.286Z,97383.00
2023-04-02T07:46:45.811Z,97424.56
2023-04-02T07:49:12.394Z,97409.94
2023-04-02T07:51:39.045Z,97408.06
2023-04-02T07:54:05.582Z,97520.44
2023-04-02T07:56:32.079Z,97626.53
2023-04-02T07:58:58.490Z,97646.34
2023-04-02T08:01:27.574Z,97667.13
2023-04-02T08:03:55.115Z,97712.97
2023-04-02T08:06:22.051Z,97726.59
2023-04-02T08:08:48.834Z,97822.31
2023-04-02T08:11:15.290Z,97894.25
2023-04-02T08:13:42.068Z,97903.34
2023-04-02T08:16:09.986Z,97979.53
2023-04-02T08:18:36.679Z,98041.41
2023-04-02T08:21:07.274Z,98048.47
2023-04-02T08:23:33.681Z,98127.00
2023-04-02T08:26:00.149Z,98210.06
2023-04-02T08:28:26.722Z,98270.44
2023-04-02T08:30:53.290Z,98289.38
2023-04-02T08:33:20.085Z,98361.81
2023-04-02T08:35:50.542Z,98390.13
2023-04-02T08:38:19.145Z,98452.66
2023-04-02T08:40:49.937Z,98493.81
2023-04-02T08:43:38.077Z,98488.84
2023-04-02T08:46:08.150Z,98519.00
2023-04-02T08:48:40.186Z,98459.25
2023-04-02T08:51:15.342Z,98629.50
2023-04-02T08:53:41.980Z,98647.19
2023-04-02T08:56:26.560Z,98610.72
2023-04-02T08:58:53.119Z,98686.25
2023-04-02T09:01:31.848Z,98792.72
2023-04-02T09:03:59.487Z,98730.94
2023-04-02T09:06:26.438Z,98698.81
2023-04-02T09:08:54.261Z,98778.00
2023-04-02T09:11:27.521Z,98761.06
2023-04-02T09:13:58.924Z,98742.75
2023-04-02T09:16:49.458Z,98762.56
2023-04-02T09:19:20.515Z,98754.94
2023-04-02T09:21:57.877Z,98746.97
2023-04-02T09:24:24.390Z,98740.34
2023-04-02T09:26:50.872Z,98791.47
2023-04-02T09:29:26.184Z,98806.16
2023-04-02T09:32:19.590Z,98828.56
2023-04-02T09:34:46.331Z,98782.03
2023-04-02T09:37:22.401Z,98805.53
2023-04-02T09:39:50.113Z,98804.72
2023-04-02T09:42:32.949Z,98857.50
2023-04-02T09:45:22.880Z,98810.41
2023-04-02T09:47:51.443Z,98793.41
2023-04-02T09:50:20.883Z,98851.41
2023-04-02T09:52:48.528Z,98791.91
2023-04-02T09:55:14.938Z,98867.16
2023-04-02T09:57:42.151Z,98860.81
2023-04-02T10:00:25.255Z,98828.06
2023-04-02T10:03:01.359Z,98838.56
2023-04-02T10:05:39.800Z,98912.56
2023-04-02T10:08:34.015Z,98961.47
2023-04-02T10:11:03.040Z,98867.97
2023-04-02T10:14:00.437Z,98941.09
2023-04-02T10:16:48.275Z,98949.66
2023-04-02T10:19:26.764Z,99039.38
2023-04-02T10:21:55.314Z,98998.88
2023-04-02T10:24:21.950Z,98958.41
2023-04-02T10:26:55.283Z,98986.59
2023-04-02T10:29:36.970Z,99051.69
2023-04-02T10:32:24.946Z,99020.34
2023-04-02T10:34:58.611Z,99072.31
2023-04-02T10:37:44.490Z,99091.09
2023-04-02T10:40:15.282Z,99128.69
2023-04-02T10:42:53.677Z,99036.81
2023-04-02T10:45:42.294Z,99107.31
2023-04-02T10:48:20.567Z,99141.19
2023-04-02T10:51:19.210Z,99145.28
2023-04-02T10:53:57.727Z,99186.91
2023-04-02T10:56:26.458Z,99199.00
2023-04-02T10:58:59.395Z,99254.59
2023-04-02T11:01:29.306Z,99288.72
2023-04-02T11:04:02.435Z,99203.97
2023-04-02T11:06:38.348Z,99215.97
2023-04-02T11:09:11.795Z,99232.28
2023-04-02T11:11:48.738Z,99287.63
2023-04-02T11:14:25.532Z,99265.22
2023-04-02T11:16:54.308Z,99312.50
2023-04-02T11:19:24.414Z,99325.84
2023-04-02T11:22:06.665Z,99335.47
2023-04-02T11:24:43.049Z,99400.22
2023-04-02T11:27:09.495Z,99374.25
2023-04-02T11:29:37.318Z,99396.28
2023-04-02T11:32:37.659Z,99467.69
2023-04-02T11:35:25.189Z,99495.34
2023-04-02T11:37:52.661Z,99483.81
2023-04-02T11:40:43.852Z,99577.03
2023-04-02T11:43:47.683Z,99610.63
2023-04-02T11:46:20.358Z,99521.41
2023-04-02T11:48:46.925Z,99578.50
2023-04-02T11:51:22.688Z,99563.97
2023-04-02T11:53:51.656Z,99574.75
2023-04-02T11:56:32.508Z,99617.75
2023-04-02T11:59:17.597Z,99662.94
2023-04-02T12:01:50.247Z,99721.63
2023-04-02T12:04:35.158Z,99695.81
2023-04-02T12:07:29.024Z,99670.09
2023-04-02T12:10:16.777Z,99789.13
2023-04-02T12:12:44.163Z,99729.50
2023-04-02T12:15:34.364Z,99838.94
2023-04-02T12:18:15.581Z,99790.81
2023-04-02T12:20:46.996Z,99855.59
2023-04-02T12:23:35.457Z,99823.94
2023-04-02T12:26:04.752Z,99815.00
2023-04-02T12:28:31.304Z,99900.78
2023-04-02T12:31:13.955Z,100095.41
2023-04-02T12:33:41.519Z,99962.66
2023-04-02T12:36:13.871Z,100124.53
2023-04-02T12:38:53.274Z,100120.59
2023-04-02T12:41:27.602Z,100083.44
2023-04-02T12:44:12.960Z,100124.53
2023-04-02T12:46:40.228Z,100164.94
2023-04-02T12:49:31.739Z,100235.28
2023-04-02T12:52:01.522Z,100251.31
2023-04-02T12:54:29.186Z,100300.50
2023-04-02T12:57:27.800Z,100379.38
2023-04-02T12:59:57.606Z,100343.63
2023-04-02T13:02:29.577Z,100462.47
2023-04-02T13:04:58.404Z,100440.22
2023-04-02T13:07:27.167Z,100503.25
2023-04-02T13:09:55.913Z,100545.66
2023-04-02T13:12:37.117Z,100726.78
2023-04-02T13:15:17.970Z,100814.22
2023-04-02T13:17:47.640Z,100711.94
2023-04-02T13:20:40.417Z,100915.47
2023-04-02T13:23:28.665Z,100899.59
2023-04-02T13:26:20.122Z,100915.13
2023-04-02T13:29:03.066Z,101063.78
2023-04-02T13:31:31.123Z,101124.13
2023-04-02T13:33:58.192Z,101071.00
2023-04-02T13:36:25.044Z,101017.91
2023-04-02T13:38:51.526Z,101069.84
2023-04-02T13:41:33.597Z,101248.81
2023-04-02T13:44:02.421Z,101192.13
2023-04-02T13:46:31.249Z,101297.56
2023-04-02T13:48:58.954Z,101311.03
2023-04-02T13:51:36.566Z,101430.44
2023-04-02T13:54:07.327Z,101475.00
2023-04-02T13:56:33.849Z,101480.00
2023-04-02T13:59:00.450Z,101488.09
2023-04-02T14:01:27.075Z,101565.25
2023-04-02T14:03:54.728Z,101706.47
2023-04-02T14:06:57.228Z,101802.78
2023-04-02T14:09:42.291Z,101899.66
2023-04-02T14:12:34.237Z,101924.44
2023-04-02T14:15:25.551Z,101862.69
2023-04-02T14:18:15.885Z,101844.28
2023-04-02T14:20:55.168Z,101874.94
2023-04-02T14:23:45.025Z,101879.53
2023-04-02T14:26:39.885Z,101737.06
2023-04-02T14:29:33.388Z,102003.84
2023-04-02T14:32:25.847Z,101939.84
2023-04-02T14:35:21.498Z,101985.09
2023-04-02T14:37:56.985Z,101970.78
2023-04-02T14:40:33.919Z,101984.75
2023-04-02T14:43:02.101Z,101957.47
2023-04-02T14:45:40.139Z,101919.84
2023-04-02T14:48:22.092Z,101995.19
2023-04-02T14:50:51.682Z,101947.88
2023-04-02T14:53:38.624Z,101909.00
2023-04-02T14:56:07.727Z,101972.25
2023-04-02T14:58:48.256Z,102041.66
2023-04-02T15:01:21.980Z,102042.06
2023-04-02T15:03:58.386Z,102020.03
2023-04-02T15:06:30.870Z,101948.94
2023-04-02T15:09:22.537Z,102005.66
2023-04-02T15:11:52.846Z,102055.56
2023-04-02T15:14:28.300Z,102097.69
2023-04-02T15:16:54.951Z,102083.25
2023-04-02T15:19:21.418Z,102025.16
2023-04-02T15:22:15.259Z,102020.88
2023-04-02T15:25:00.614Z,102032.13
2023-04-02T15:27:58.219Z,102068.06
2023-04-02T15:30:29.614Z,102066.38
2023-04-02T15:33:18.637Z,102116.91
2023-04-02T15:35:52.275Z,102113.06
2023-04-02T15:38:30.092Z,102071.97
2023-04-02T15:41:41.228Z,102147.50
2023-04-02T15:44:15.213Z,102127.41
2023-04-02T15:46:41.833Z,102103.06
2023-04-02T15:49:26.878Z,102147.25
2023-04-02T15:52:04.364Z,102155.47
2023-04-02T15:54:43.822Z,102174.25
2023-04-02T15:57:19.694Z,102187.84
2023-04-02T16:00:11.176Z,102182.78
2023-04-02T16:02:56.742Z,102260.38
2023-04-02T16:05:49.313Z,102258.56
2023-04-02T16:08:34.131Z,102292.97
2023-04-02T16:11:00.763Z,102287.44
2023-04-02T16:13:35.899Z,102325.00
2023-04-02T16:16:21.335Z,102324.44
2023-04-02T16:19:17.233Z,102350.81
2023-04-02T16:21:54.282Z,102317.94
2023-04-02T16:24:20.723Z,102338.31
2023-04-02T16:26:57.732Z,102321.56
2023-04-02T16:29:54.332Z,102383.38
2023-04-02T16:32:49.788Z,102392.81
2023-04-02T16:35:50.213Z,102374.03
2023-04-02T16:38:52.441Z,102405.03
2023-04-02T16:41:28.137Z,102407.66
2023-04-02T16:44:19.468Z,102382.78
2023-04-02T16:46:52.277Z,102432.34
2023-04-02T16:49:18.794Z,102418.00
2023-04-02T16:51:48.137Z,102444.34
2023-04-02T16:54:29.624Z,102437.25
2023-04-02T16:57:17.340Z,102462.44
2023-04-02T16:59:55.766Z,102497.50
2023-04-02T17:02:46.526Z,102499.03
2023-04-02T17:05:22.333Z,102524.09
2023-04-02T17:08:03.143Z,102490.94
2023-04-02T17:10:31.120Z,102523.00
2023-04-02T17:13:21.734Z,102544.38
2023-04-02T17:15:59.912Z,102498.22
2023-04-02T17:18:26.611Z,102500.59
2023-04-02T17:21:02.381Z,102546.19
2023-04-02T17:23:31.128Z,102513.09
2023-04-02T17:26:01.963Z,102566.59
2023-04-02T17:28:32.116Z,102568.50
2023-04-02T17:31:00.870Z,102572.72
2023-04-02T17:33:27.649Z,102586.06
2023-04-02T17:36:00.243Z,102593.97
2023-04-02T17:38:41.092Z,102593.38
2023-04-02T17:41:28.750Z,102577.22
2023-04-02T17:44:14.542Z,102564.78
2023-04-02T17:46:49.902Z,102631.41
2023-04-02T17:50:06.969Z,102641.25
2023-04-02T17:52:39.514Z,102608.28
2023-04-02T17:55:27.656Z,102631.53
2023-04-02T17:58:09.223Z,102640.91
2023-04-02T18:00:52.334Z,102656.69
2023-04-02T18:03:30.958Z,102643.75
2023-04-02T18:06:15.006Z,102603.47
2023-04-02T18:08:49.271Z,102597.19
2023-04-02T18:11:54.407Z,102662.56
2023-04-02T18:15:05.816Z,102668.75
2023-04-02T18:17:46.298Z,102639.75
2023-04-02T18:20:53.517Z,102679.25
2023-04-02T18:23:37.881Z,102674.47
2023-04-02T18:26:22.405Z,102679.13
2023-04-02T18:29:14.695Z,102651.34
2023-04-02T18:31:54.616Z,102685.00
2023-04-02T18:34:53.267Z,102667.63
2023-04-02T18:37:25.504Z,102675.09
2023-04-02T18:40:00.935Z,102619.38
2023-04-02T18:42:46.277Z,102649.41
2023-04-02T18:45:57.473Z,102645.91
2023-04-02T18:48:42.455Z,102646.03
2023-04-02T18:51:33.919Z,102644.06
2023-04-02T18:54:09.186Z,102604.56
2023-04-02T18:56:39.254Z,102632.50
2023-04-02T18:59:23.209Z,102630.47
2023-04-02T19:01:53.691Z,102644.31
2023-04-02T19:04:28.904Z,102650.75
2023-04-02T19:07:03.705Z,102658.25
2023-04-02T19:09:41.168Z,102677.00
2023-04-02T19:12:16.059Z,102630.91
2023-04-02T19:14:42.543Z,102669.34
2023-04-02T19:17:56.670Z,102684.00
2023-04-02T19:20:32.680Z,102710.81
2023-04-02T19:23:05.099Z,102694.03
2023-04-02T19:26:01.394Z,102684.41
2023-04-02T19:28:37.106Z,102704.09
2023-04-02T19:31:14.539Z,102734.75
2023-04-02T19:33:50.013Z,102643.13
2023-04-02T19:37:10.091Z,102728.97
2023-04-02T19:39:55.364Z,102722.78
2023-04-02T19:42:39.192Z,102728.31
2023-04-02T19:45:17.932Z,102697.81
2023-04-02T19:47:44.406Z,102733.31
2023-04-02T19:50:10.983Z,102731.75
2023-04-02T19:52:37.453Z,102744.03
2023-04-02T19:55:04.335Z,102770.53
2023-04-02T19:57:30.805Z,102750.41
2023-04-02T19:59:57.370Z,102751.25
2023-04-02T20:02:23.841Z,102758.94
2023-04-02T20:04:50.388Z,102756.97
2023-04-02T20:07:16.885Z,102761.34
2023-04-02T20:09:43.408Z,102772.81
2023-04-02T20:12:10.001Z,102774.16
2023-04-02T20:14:36.510Z,102739.81
2023-04-02T20:17:03.125Z,102757.38
2023-04-02T20:19:29.819Z,102781.91
2023-04-02T20:21:56.286Z,102794.66
2023-04-02T20:24:22.821Z,102723.34
2023-04-02T20:26:49.310Z,102758.19
2023-04-02T20:29:15.891Z,102783.25
2023-04-02T20:31:42.671Z,102802.78
2023-04-02T20:34:09.975Z,102801.47
2023-04-02T20:36:36.526Z,102778.41
2023-04-02T20:39:03.319Z,102806.53
2023-04-02T20:41:29.777Z,102813.13
2023-04-02T20:43:56.337Z,102794.41
2023-04-02T20:46:22.913Z,102796.63
2023-04-02T20:48:49.439Z,102798.94
2023-04-02T20:51:16.247Z,102788.22
2023-04-02T20:53:42.992Z,102832.88
2023-04-02T20:56:14.786Z,102815.09
2023-04-02T20:58:42.486Z,102795.34
2023-04-02T21:01:14.723Z,102826.44
2023-04-02T21:03:41.459Z,102851.97
2023-04-02T21:06:16.079Z,102825.25
2023-04-02T21:08:42.902Z,102818.78
2023-04-02T21:11:10.008Z,102813.25
2023-04-02T21:13:37.360Z,102806.91
2023-04-02T21:16:05.803Z,102820.78
2023-04-02T21:18:32.700Z,102827.22
2023-04-02T21:21:01.511Z,102838.97
2023-04-02T21:23:29.062Z,102784.97
2023-04-02T21:25:57.492Z,102847.13
2023-04-02T21:28:24.052Z,102831.06
2023-04-02T21:30:50.701Z,102823.19
2023-04-02T21:33:17.476Z,102815.94
2023-04-02T21:35:44.197Z,102809.34
2023-04-02T21:38:10.696Z,102803.47
2023-04-02T21:40:37.154Z,102792.91
2023-04-02T21:43:03.682Z,102762.78
2023-04-02T21:45:30.179Z,102687.84
2023-04-02T21:47:56.668Z,102683.59
2023-04-02T21:50:23.209Z,102686.25
2023-04-02T21:52:49.887Z,102587.59
2023-04-02T21:55:16.655Z,102588.06
2023-04-02T21:57:43.257Z,102476.56
2023-04-02T22:00:10.385Z,102477.34
2023-04-02T22:02:36.941Z,102436.56
2023-04-02T22:05:03.958Z,102337.34
2023-04-02T22:07:30.494Z,102332.66
2023-04-02T22:09:56.933Z,102337.28
2023-04-02T22:12:23.524Z,102230.19
2023-04-02T22:14:50.002Z,102143.19
2023-04-02T22:17:16.412Z,102078.06
2023-04-02T22:19:43.093Z,102084.06
2023-04-02T22:22:09.500Z,102050.13
2023-04-02T22:24:35.991Z,102006.16
2023-04-02T22:27:02.459Z,102040.31
2023-04-02T22:29:28.882Z,101993.25
2023-04-02T22:31:55.303Z,101934.41
2023-04-02T22:34:21.861Z,101912.75
2023-04-02T22:36:48.330Z,101795.47
2023-04-02T22:39:15.818Z,101836.00
2023-04-02T22:41:42.311Z,101799.16
2023-04-02T22:44:14.121Z,101776.66
2023-04-02T22:46:40.664Z,101741.16
2023-04-02T22:49:07.233Z,101652.09
2023-04-02T22:51:33.664Z,101702.88
2023-04-02T22:54:00.108Z,101679.75
2023-04-02T22:56:28.910Z,101646.22
2023-04-02T22:58:55.540Z,101676.63
2023-04-02T23:01:25.916Z,101662.75
2023-04-02T23:03:55.773Z,101657.41
2023-04-02T23:06:23.019Z,101668.47
2023-04-02T23:08:49.674Z,101595.25
2023-04-02T23:11:18.923Z,101656.09
2023-04-02T23:13:48.051Z,101647.13
2023-04-02T23:16:15.729Z,101520.72
2023-04-02T23:18:44.025Z,101581.13
2023-04-02T23:21:10.691Z,101610.53
2023-04-02T23:23:37.681Z,101628.19
2023-04-02T23:26:11.813Z,101732.28
2023-04-02T23:28:39.791Z,99216.06
2023-04-02T23:31:09.227Z,100346.31
2023-04-02T23:33:35.882Z,100398.56
2023-04-02T23:36:26.572Z,100440.53
2023-04-02T23:38:55.191Z,100432.88
2023-04-02T23:41:23.876Z,100420.44
2023-04-02T23:43:50.725Z,100472.09
2023-04-02T23:46:17.207Z,100518.50
2023-04-02T23:48:43.637Z,100530.66
2023-04-02T23:51:10.222Z,100602.94
2023-04-02T23:53:37.106Z,100655.63
2023-04-02T23:56:03.766Z,100699.47
2023-04-02T23:58:30.291Z,100717.34
